createdAt,value
2018-10-19T00:00:23.927Z,18.90
2018-10-19T00:02:52.997Z,19.70
2018-10-19T00:05:21.735Z,21.43
2018-10-19T00:07:50.587Z,19.23
2018-10-19T00:10:20.465Z,17.30
2018-10-19T00:12:49.175Z,16.10
2018-10-19T00:15:17.849Z,18.87
2018-10-19T00:17:46.549Z,17.00
2018-10-19T00:20:15.274Z,19.37
2018-10-19T00:22:44.103Z,17.80
2018-10-19T00:25:12.859Z,22.73
2018-10-19T00:27:41.638Z,21.40
2018-10-19T00:30:11.189Z,17.57
2018-10-19T00:32:39.905Z,18.50
2018-10-19T00:35:09.777Z,18.63
2018-10-19T00:37:38.519Z,16.97
2018-10-19T00:40:07.432Z,19.47
2018-10-19T00:42:36.131Z,18.80
2018-10-19T00:45:05.609Z,21.50
2018-10-19T00:47:34.292Z,21.10
2018-10-19T00:50:03.060Z,17.83
2018-10-19T00:52:31.733Z,19.23
2018-10-19T00:55:00.420Z,20.00
2018-10-19T00:57:29.127Z,19.60
2018-10-19T00:59:57.862Z,22.47
2018-10-19T01:02:26.644Z,23.33
2018-10-19T01:04:55.390Z,22.87
2018-10-19T01:07:24.103Z,21.40
2018-10-19T01:09:53.056Z,20.13
2018-10-19T01:12:21.820Z,20.23
2018-10-19T01:14:50.507Z,20.73
2018-10-19T01:17:19.215Z,20.10
2018-10-19T01:19:47.988Z,19.53
2018-10-19T01:22:16.695Z,19.40
2018-10-19T01:24:45.725Z,19.80
2018-10-19T01:27:14.486Z,18.73
2018-10-19T01:29:43.143Z,18.17
2018-10-19T01:32:11.879Z,18.23
2018-10-19T01:34:41.017Z,17.40
2018-10-19T01:37:09.823Z,20.57
2018-10-19T01:39:38.587Z,22.77
2018-10-19T01:42:07.358Z,19.93
2018-10-19T01:44:36.178Z,18.90
2018-10-19T01:47:05.181Z,19.60
2018-10-19T01:49:33.954Z,22.17
2018-10-19T01:52:02.719Z,20.97
2018-10-19T01:54:31.679Z,19.03
2018-10-19T01:57:00.471Z,22.70
2018-10-19T01:59:29.201Z,21.23
2018-10-19T02:01:57.946Z,19.87
2018-10-19T02:04:26.685Z,21.00
2018-10-19T02:06:55.497Z,18.97
2018-10-19T02:09:24.286Z,19.87
2018-10-19T02:11:53.026Z,18.53
2018-10-19T02:14:21.810Z,20.60
2018-10-19T02:16:50.640Z,16.37
2018-10-19T02:19:19.726Z,19.23
2018-10-19T02:21:48.431Z,18.37
2018-10-19T02:24:17.147Z,19.30
2018-10-19T02:26:45.828Z,20.10
2018-10-19T02:29:14.675Z,21.17
2018-10-19T02:31:43.292Z,23.57
2018-10-19T02:34:12.051Z,18.57
2018-10-19T02:36:41.113Z,19.77
2018-10-19T02:39:09.995Z,23.50
2018-10-19T02:41:38.647Z,18.23
2018-10-19T02:44:07.623Z,21.60
2018-10-19T02:46:36.511Z,20.23
2018-10-19T02:49:05.977Z,20.30
2018-10-19T02:51:35.551Z,22.87
2018-10-19T02:54:06.000Z,19.77
2018-10-19T02:56:35.147Z,22.63
2018-10-19T02:59:03.914Z,20.57
2018-10-19T03:01:32.960Z,20.90
2018-10-19T03:04:01.668Z,23.67
2018-10-19T03:06:30.428Z,17.13
2018-10-19T03:08:59.188Z,19.10
2018-10-19T03:11:27.973Z,19.67
2018-10-19T03:13:56.752Z,19.97
2018-10-19T03:16:25.649Z,24.93
2018-10-19T03:18:54.402Z,24.27
2018-10-19T03:21:23.217Z,24.53
2018-10-19T03:23:51.928Z,27.57
2018-10-19T03:26:20.681Z,23.70
2018-10-19T03:28:49.430Z,30.27
2018-10-19T03:31:18.311Z,27.40
2018-10-19T03:33:46.970Z,33.43
2018-10-19T03:36:15.690Z,36.67
2018-10-19T03:38:44.475Z,37.53
2018-10-19T03:41:13.328Z,35.80
2018-10-19T03:43:42.117Z,37.57
2018-10-19T03:46:10.985Z,37.77
2018-10-19T03:48:39.649Z,47.27
2018-10-19T03:51:08.417Z,54.60
2018-10-19T03:53:37.641Z,53.07
2018-10-19T03:56:06.538Z,48.43
2018-10-19T03:58:35.415Z,42.97
2018-10-19T04:01:04.242Z,44.00
2018-10-19T04:03:32.999Z,45.37
2018-10-19T04:06:01.621Z,40.37
2018-10-19T04:08:30.328Z,48.77
2018-10-19T04:10:59.093Z,41.73
2018-10-19T04:13:27.968Z,47.43
2018-10-19T04:15:56.708Z,46.90
2018-10-19T04:18:25.711Z,54.47
2018-10-19T04:20:54.710Z,54.73
2018-10-19T04:23:23.633Z,50.50
2018-10-19T04:25:52.370Z,51.37
2018-10-19T04:28:21.231Z,59.93
2018-10-19T04:30:50.118Z,73.63
2018-10-19T04:33:19.248Z,55.70
2018-10-19T04:35:47.762Z,49.20
2018-10-19T04:38:16.469Z,49.77
2018-10-19T04:40:45.628Z,54.17
2018-10-19T04:43:14.341Z,47.07
2018-10-19T04:45:43.170Z,36.87
2018-10-19T04:48:12.029Z,45.07
2018-10-19T04:50:41.035Z,44.43
2018-10-19T04:53:09.821Z,66.73
2018-10-19T04:55:39.368Z,41.73
2018-10-19T04:58:08.061Z,55.27
2018-10-19T05:00:36.757Z,42.33
2018-10-19T05:03:05.534Z,47.20
2018-10-19T05:05:34.208Z,47.40
2018-10-19T05:08:03.801Z,43.50
2018-10-19T05:10:32.907Z,52.70
2018-10-19T05:13:01.857Z,44.13
2018-10-19T05:15:32.036Z,44.07
2018-10-19T05:18:00.773Z,44.23
2018-10-19T05:20:29.918Z,50.07
2018-10-19T05:22:58.670Z,47.17
2018-10-19T05:25:27.336Z,44.80
2018-10-19T05:27:56.006Z,43.20
2018-10-19T05:30:24.689Z,37.83
2018-10-19T05:32:53.547Z,51.23
2018-10-19T05:35:24.439Z,46.63
2018-10-19T05:37:53.465Z,55.53
2018-10-19T05:40:22.247Z,39.33
2018-10-19T05:42:50.998Z,62.50
2018-10-19T05:45:19.664Z,46.70
2018-10-19T05:47:48.550Z,52.93
2018-10-19T05:50:17.566Z,55.07
2018-10-19T05:52:46.695Z,42.47
2018-10-19T05:55:15.559Z,42.40
2018-10-19T05:57:44.484Z,41.30
2018-10-19T06:00:13.610Z,46.30
2018-10-19T06:02:42.365Z,41.53
2018-10-19T06:05:10.985Z,46.10
2018-10-19T06:07:40.165Z,45.03
2018-10-19T06:10:09.310Z,39.30
2018-10-19T06:12:38.540Z,43.27
2018-10-19T06:15:09.000Z,39.37
2018-10-19T06:17:37.854Z,35.10
2018-10-19T06:20:07.323Z,36.07
2018-10-19T06:22:35.931Z,40.13
2018-10-19T06:25:04.742Z,37.20
2018-10-19T06:27:33.517Z,38.17
2018-10-19T06:30:02.294Z,39.10
2018-10-19T06:32:32.315Z,39.17
2018-10-19T06:35:01.305Z,36.97
2018-10-19T06:37:30.325Z,37.13
2018-10-19T06:39:59.238Z,38.77
2018-10-19T06:42:28.227Z,39.83
2018-10-19T06:44:56.965Z,34.03
2018-10-19T06:47:26.026Z,54.13
2018-10-19T06:49:54.677Z,42.03
2018-10-19T06:52:24.018Z,47.43
2018-10-19T06:54:53.044Z,35.67
2018-10-19T06:57:21.731Z,38.07
2018-10-19T06:59:50.471Z,37.57
2018-10-19T07:02:19.559Z,38.33
2018-10-19T07:04:48.319Z,37.20
2018-10-19T07:07:17.198Z,39.20
2018-10-19T07:09:46.142Z,34.50
2018-10-19T07:12:15.039Z,38.23
2018-10-19T07:14:44.099Z,52.17
2018-10-19T07:17:12.884Z,37.80
2018-10-19T07:19:41.577Z,36.77
2018-10-19T07:22:10.595Z,41.30
2018-10-19T07:24:39.531Z,40.13
2018-10-19T07:27:08.365Z,41.07
2018-10-19T07:29:37.102Z,45.07
2018-10-19T07:32:05.854Z,41.87
2018-10-19T07:34:34.584Z,39.53
2018-10-19T07:37:03.322Z,44.13
2018-10-19T07:39:32.099Z,40.43
2018-10-19T07:42:01.098Z,37.83
2018-10-19T07:44:29.875Z,38.77
2018-10-19T07:46:58.862Z,40.70
2018-10-19T07:49:27.761Z,37.63
2018-10-19T07:51:56.448Z,40.17
2018-10-19T07:54:25.165Z,41.80
2018-10-19T07:56:53.915Z,39.57
2018-10-19T07:59:22.902Z,40.33
2018-10-19T08:01:51.532Z,37.87
2018-10-19T08:04:20.451Z,38.27
2018-10-19T08:06:49.200Z,36.70
2018-10-19T08:09:18.278Z,34.20
2018-10-19T08:11:46.951Z,35.33
2018-10-19T08:14:15.957Z,36.37
2018-10-19T08:16:44.927Z,32.60
2018-10-19T08:19:13.654Z,32.90
2018-10-19T08:21:42.297Z,35.80
2018-10-19T08:24:11.050Z,35.27
2018-10-19T08:26:39.714Z,40.57
2018-10-19T08:29:08.408Z,44.27
2018-10-19T08:31:37.065Z,43.70
2018-10-19T08:34:05.951Z,45.20
2018-10-19T08:36:34.666Z,48.00
2018-10-19T08:39:03.427Z,46.17
2018-10-19T08:41:32.343Z,53.50
2018-10-19T08:44:01.180Z,48.83
2018-10-19T08:46:35.488Z,52.83
2018-10-19T08:49:04.820Z,56.83
2018-10-19T08:51:33.930Z,61.40
2018-10-19T08:54:02.815Z,62.40
2018-10-19T08:56:31.478Z,69.07
2018-10-19T08:59:00.196Z,60.77
2018-10-19T09:01:29.771Z,58.07
2018-10-19T09:03:58.825Z,63.50
2018-10-19T09:06:27.490Z,65.23
2018-10-19T09:08:56.476Z,68.43
2018-10-19T09:11:25.729Z,69.83
2018-10-19T09:13:54.547Z,67.87
2018-10-19T09:16:23.250Z,70.07
2018-10-19T09:18:52.143Z,66.90
2018-10-19T09:21:20.794Z,69.03
2018-10-19T09:23:49.519Z,65.87
2018-10-19T09:26:18.154Z,65.57
2018-10-19T09:28:47.236Z,62.47
2018-10-19T09:31:16.139Z,59.20
2018-10-19T09:33:45.307Z,59.47
2018-10-19T09:36:14.304Z,60.27
2018-10-19T09:38:43.437Z,60.00
2018-10-19T09:41:12.243Z,68.77
2018-10-19T09:43:41.139Z,63.70
2018-10-19T09:46:10.207Z,60.27
2018-10-19T09:48:38.934Z,60.13
2018-10-19T09:51:07.697Z,62.90
2018-10-19T09:53:36.520Z,57.83
2018-10-19T09:56:06.029Z,60.10
2018-10-19T09:58:35.333Z,59.90
2018-10-19T10:01:08.309Z,57.20
2018-10-19T10:03:37.206Z,57.77
2018-10-19T10:06:06.711Z,54.93
2018-10-19T10:08:36.609Z,52.90
2018-10-19T10:11:06.172Z,56.13
2018-10-19T10:13:35.181Z,57.57
2018-10-19T10:16:04.084Z,49.20
2018-10-19T10:18:32.910Z,51.93
2018-10-19T10:21:01.888Z,50.87
2018-10-19T10:23:30.670Z,55.17
2018-10-19T10:25:59.326Z,56.87
2018-10-19T10:28:28.413Z,53.00
2018-10-19T10:30:57.134Z,51.30
2018-10-19T10:33:26.194Z,52.53
2018-10-19T10:35:55.354Z,53.27
2018-10-19T10:38:24.225Z,50.83
2018-10-19T10:40:53.093Z,50.40
2018-10-19T10:43:22.045Z,50.63
2018-10-19T10:45:50.965Z,52.43
2018-10-19T10:48:19.703Z,49.67
2018-10-19T10:50:48.821Z,46.37
2018-10-19T10:53:17.889Z,53.87
2018-10-19T10:55:46.534Z,48.03
2018-10-19T10:58:15.334Z,47.03
2018-10-19T11:00:44.199Z,50.07
2018-10-19T11:03:12.915Z,48.70
2018-10-19T11:05:41.718Z,46.50
2018-10-19T11:08:10.803Z,50.37
2018-10-19T11:10:39.813Z,50.43
2018-10-19T11:13:09.140Z,48.80
2018-10-19T11:15:38.211Z,43.00
2018-10-19T11:18:07.405Z,48.63
2018-10-19T11:20:36.079Z,48.33
2018-10-19T11:23:05.566Z,49.40
2018-10-19T11:25:34.432Z,47.60
2018-10-19T11:28:03.477Z,39.53
2018-10-19T11:30:32.613Z,44.13
2018-10-19T11:33:01.720Z,46.73
2018-10-19T11:35:31.373Z,44.63
2018-10-19T11:38:00.043Z,45.27
2018-10-19T11:40:31.768Z,40.53
2018-10-19T11:43:00.677Z,41.17
2018-10-19T11:45:31.096Z,48.20
2018-10-19T11:47:59.994Z,38.13
2018-10-19T11:50:29.445Z,41.37
2018-10-19T11:52:58.153Z,41.10
2018-10-19T11:55:26.887Z,41.63
2018-10-19T11:57:55.819Z,49.03
2018-10-19T12:00:24.678Z,39.70
2018-10-19T12:02:53.882Z,42.13
2018-10-19T12:05:22.569Z,39.27
2018-10-19T12:07:51.392Z,43.03
2018-10-19T12:10:20.079Z,39.17
2018-10-19T12:12:48.774Z,40.57
2018-10-19T12:15:18.578Z,39.00
2018-10-19T12:17:48.118Z,41.50
2018-10-19T12:20:18.124Z,34.83
2018-10-19T12:22:46.831Z,37.27
2018-10-19T12:25:16.460Z,41.13
2018-10-19T12:27:45.050Z,37.30
2018-10-19T12:30:14.291Z,41.90
2018-10-19T12:32:44.211Z,40.37
2018-10-19T12:35:14.317Z,48.03
2018-10-19T12:37:43.521Z,39.03
2018-10-19T12:40:12.588Z,35.17
2018-10-19T12:42:41.374Z,37.30
2018-10-19T12:47:26.562Z,37.43
2018-10-19T12:49:55.270Z,43.23
2018-10-19T12:52:24.103Z,41.57
2018-10-19T12:54:52.922Z,41.03
2018-10-19T12:57:21.910Z,34.87
2018-10-19T12:59:50.697Z,38.40
2018-10-19T13:02:19.453Z,40.13
2018-10-19T13:04:48.267Z,40.10
2018-10-19T13:07:17.089Z,35.93
2018-10-19T13:09:46.008Z,35.17
2018-10-19T13:12:15.153Z,34.93
2018-10-19T13:14:43.891Z,36.93
2018-10-19T13:17:12.651Z,36.80
2018-10-19T13:19:41.374Z,40.70
2018-10-19T13:22:10.101Z,40.57
2018-10-19T13:24:38.921Z,42.20
2018-10-19T13:27:08.062Z,40.40
2018-10-19T13:29:36.822Z,38.90
2018-10-19T13:32:05.618Z,34.80
2018-10-19T13:34:34.395Z,37.77
2018-10-19T13:37:03.118Z,35.40
2018-10-19T13:39:31.805Z,39.90
2018-10-19T13:42:01.125Z,35.70
2018-10-19T13:44:29.798Z,36.37
2018-10-19T13:46:58.544Z,36.93
2018-10-19T13:49:27.454Z,37.37
2018-10-19T13:51:56.264Z,36.73
2018-10-19T13:54:25.270Z,39.57
2018-10-19T13:56:54.067Z,39.07
2018-10-19T13:59:22.822Z,33.87
2018-10-19T14:01:51.538Z,36.90
2018-10-19T14:04:20.268Z,36.03
2018-10-19T14:06:50.033Z,30.60
2018-10-19T14:09:18.710Z,31.00
2018-10-19T14:11:47.397Z,28.40
2018-10-19T14:14:17.406Z,31.23
2018-10-19T14:16:57.777Z,35.07
2018-10-19T14:19:26.612Z,34.97
2018-10-19T14:21:55.810Z,35.37
2018-10-19T14:24:26.550Z,33.70
2018-10-19T14:26:55.633Z,29.83
2018-10-19T14:29:24.452Z,29.63
2018-10-19T14:31:54.586Z,31.20
2018-10-19T14:34:23.923Z,32.63
2018-10-19T14:36:52.795Z,33.53
2018-10-19T14:39:21.522Z,26.03
2018-10-19T14:41:50.122Z,28.00
2018-10-19T14:44:18.768Z,34.33
2018-10-19T14:46:47.689Z,33.37
2018-10-19T14:49:17.110Z,34.53
2018-10-19T14:51:45.967Z,33.87
2018-10-19T14:54:15.135Z,37.00
2018-10-19T14:56:45.611Z,33.13
2018-10-19T14:59:14.972Z,38.73
2018-10-19T15:01:44.033Z,37.57
2018-10-19T15:04:13.338Z,32.80
2018-10-19T15:06:42.116Z,39.50
2018-10-19T15:09:11.999Z,34.17
2018-10-19T15:11:41.625Z,32.30
2018-10-19T15:14:10.639Z,34.40
2018-10-19T15:16:39.703Z,33.03
2018-10-19T15:19:08.462Z,31.27
2018-10-19T15:21:38.068Z,34.57
2018-10-19T15:24:06.887Z,37.37
2018-10-19T15:26:35.625Z,32.37
2018-10-19T15:29:04.511Z,31.43
2018-10-19T15:31:33.215Z,40.70
2018-10-19T15:34:01.943Z,29.87
2018-10-19T15:36:30.685Z,30.87
2018-10-19T15:38:59.425Z,33.77
2018-10-19T15:41:28.194Z,34.67
2018-10-19T15:43:56.930Z,39.93
2018-10-19T15:46:25.706Z,31.73
2018-10-19T15:48:54.434Z,37.20
2018-10-19T15:51:23.267Z,31.40
2018-10-19T15:53:52.012Z,39.80
2018-10-19T15:56:21.483Z,33.23
2018-10-19T15:58:50.221Z,34.33
2018-10-19T16:01:19.695Z,35.80
2018-10-19T16:03:48.875Z,35.10
2018-10-19T16:06:17.867Z,28.17
2018-10-19T16:08:47.405Z,31.43
2018-10-19T16:11:16.182Z,33.87
2018-10-19T16:13:45.152Z,26.20
2018-10-19T16:16:14.557Z,30.70
2018-10-19T16:18:43.382Z,27.70
2018-10-19T16:21:12.265Z,27.67
2018-10-19T16:23:41.186Z,37.93
2018-10-19T16:26:10.477Z,28.07
2018-10-19T16:28:40.901Z,29.90
2018-10-19T16:31:10.839Z,31.63
2018-10-19T16:33:42.961Z,31.77
2018-10-19T16:36:12.744Z,32.80
2018-10-19T16:38:42.770Z,31.30
2018-10-19T16:41:12.249Z,37.60
2018-10-19T16:43:41.006Z,31.80
2018-10-19T16:46:10.080Z,37.20
2018-10-19T16:48:38.923Z,30.83
2018-10-19T16:51:07.715Z,32.27
2018-10-19T16:53:36.448Z,29.77
2018-10-19T16:56:05.498Z,32.33
2018-10-19T16:58:34.256Z,29.40
2018-10-19T17:01:03.010Z,28.07
2018-10-19T17:03:32.595Z,31.10
2018-10-19T17:06:01.619Z,39.30
2018-10-19T17:08:30.463Z,33.70
2018-10-19T17:11:01.075Z,34.40
2018-10-19T17:13:30.036Z,29.73
2018-10-19T17:15:58.808Z,32.60
2018-10-19T17:18:27.746Z,35.43
2018-10-19T17:20:56.554Z,33.77
2018-10-19T17:23:27.934Z,34.40
2018-10-19T17:25:56.854Z,33.77
2018-10-19T17:28:25.673Z,33.43
2018-10-19T17:30:54.383Z,41.73
2018-10-19T17:33:23.770Z,32.33
2018-10-19T17:35:53.395Z,32.17
2018-10-19T17:38:22.975Z,30.77
2018-10-19T17:40:53.365Z,35.20
2018-10-19T17:43:22.222Z,29.13
2018-10-19T17:45:51.082Z,31.27
2018-10-19T17:48:20.189Z,30.60
2018-10-19T17:50:48.974Z,34.70
2018-10-19T17:53:17.672Z,34.60
2018-10-19T17:55:46.947Z,34.63
2018-10-19T17:58:15.871Z,31.63
2018-10-19T18:00:44.569Z,39.70
2018-10-19T18:03:13.828Z,35.70
2018-10-19T18:05:42.852Z,35.10
2018-10-19T18:08:11.661Z,34.33
2018-10-19T18:10:40.362Z,36.37
2018-10-19T18:13:09.003Z,33.10
2018-10-19T18:15:38.378Z,31.10
2018-10-19T18:18:07.227Z,37.03
2018-10-19T18:20:37.078Z,35.17
2018-10-19T18:23:06.702Z,39.80
2018-10-19T18:25:36.171Z,40.43
2018-10-19T18:28:06.677Z,49.97
2018-10-19T18:30:36.337Z,39.43
2018-10-19T18:33:06.846Z,41.43
2018-10-19T18:35:35.830Z,43.37
2018-10-19T18:38:05.165Z,42.03
2018-10-19T18:40:34.573Z,50.97
2018-10-19T18:43:03.292Z,49.87
2018-10-19T18:45:32.075Z,44.73
2018-10-19T18:48:01.229Z,43.00
2018-10-19T18:50:30.018Z,41.27
2018-10-19T18:52:59.847Z,42.90
2018-10-19T18:55:28.579Z,45.33
2018-10-19T18:57:57.262Z,43.43
2018-10-19T19:00:26.129Z,45.23
2018-10-19T19:02:55.442Z,43.13
2018-10-19T19:05:24.207Z,42.77
2018-10-19T19:07:52.976Z,50.93
2018-10-19T19:10:22.329Z,43.27
2018-10-19T19:12:55.284Z,40.60
2018-10-19T19:15:24.905Z,38.03
2018-10-19T19:17:55.290Z,41.10
2018-10-19T19:20:30.250Z,43.73
2018-10-19T19:22:59.185Z,38.40
2018-10-19T19:25:33.343Z,43.67
2018-10-19T19:28:03.145Z,49.67
2018-10-19T19:30:32.762Z,40.30
2018-10-19T19:35:08.620Z,42.00
2018-10-19T19:37:37.827Z,39.87
2018-10-19T19:40:07.356Z,45.30
2018-10-19T19:42:43.713Z,42.83
2018-10-19T19:45:12.566Z,45.83
2018-10-19T19:47:47.716Z,47.33
2018-10-19T19:50:16.467Z,50.27
2018-10-19T19:55:22.683Z,44.13
2018-10-19T19:57:51.694Z,45.20
2018-10-19T20:00:27.262Z,44.67
2018-10-19T20:02:56.455Z,47.13
2018-10-19T20:05:25.131Z,48.60
2018-10-19T20:07:53.908Z,44.80
2018-10-19T20:10:22.640Z,41.90
2018-10-19T20:12:51.425Z,44.80
2018-10-19T20:15:20.557Z,42.33
2018-10-19T20:17:49.302Z,44.80
2018-10-19T20:20:18.226Z,46.80
2018-10-19T20:22:46.746Z,40.00
2018-10-19T20:25:15.519Z,43.47
2018-10-19T20:27:44.489Z,42.40
2018-10-19T20:30:14.097Z,40.77
2018-10-19T20:32:45.491Z,46.17
2018-10-19T20:35:14.261Z,41.67
2018-10-19T20:37:44.895Z,46.67
2018-10-19T20:40:20.242Z,41.63
2018-10-19T20:43:06.382Z,42.50
2018-10-19T20:45:39.897Z,46.03
2018-10-19T20:48:10.579Z,45.77
2018-10-19T20:50:39.267Z,45.57
2018-10-19T20:53:13.067Z,43.90
2018-10-19T20:55:41.911Z,43.00
2018-10-19T20:58:10.766Z,37.03
2018-10-19T21:00:39.512Z,42.23
2018-10-19T21:03:20.202Z,42.97
2018-10-19T21:05:49.338Z,42.73
2018-10-19T21:08:18.973Z,43.97
2018-10-19T21:10:48.242Z,45.93
2018-10-19T21:13:17.649Z,46.60
2018-10-19T21:15:46.894Z,50.00
2018-10-19T21:18:15.867Z,45.60
2018-10-19T21:20:44.930Z,48.30
2018-10-19T21:23:14.855Z,50.70
2018-10-19T21:25:43.723Z,49.57
2018-10-19T21:28:12.833Z,46.53
2018-10-19T21:30:41.507Z,52.40
2018-10-19T21:33:10.371Z,52.53
2018-10-19T21:35:39.079Z,49.57
2018-10-19T21:38:08.002Z,43.57
2018-10-19T21:40:36.606Z,47.80
2018-10-19T21:43:05.735Z,49.00
2018-10-19T21:45:34.465Z,46.60
2018-10-19T21:48:03.290Z,48.10
2018-10-19T21:50:32.030Z,47.37
2018-10-19T21:53:00.712Z,41.90
2018-10-19T21:55:29.683Z,44.00
2018-10-19T21:57:58.402Z,44.97
2018-10-19T22:00:27.130Z,44.77
2018-10-19T22:02:55.845Z,43.40
2018-10-19T22:05:24.730Z,44.77
2018-10-19T22:07:53.479Z,49.27
2018-10-19T22:10:22.190Z,44.60
2018-10-19T22:12:54.698Z,50.37
2018-10-19T22:15:23.477Z,44.83
2018-10-19T22:17:52.260Z,48.27
2018-10-19T22:20:21.026Z,48.30
2018-10-19T22:22:49.777Z,49.77
2018-10-19T22:25:18.638Z,48.67
2018-10-19T22:27:47.655Z,47.43
2018-10-19T22:30:16.573Z,47.40
2018-10-19T22:32:45.847Z,47.20
2018-10-19T22:35:14.612Z,48.57
2018-10-19T22:37:43.363Z,45.70
2018-10-19T22:40:12.154Z,45.57
2018-10-19T22:42:40.922Z,44.33
2018-10-19T22:45:09.651Z,42.73
2018-10-19T22:47:38.414Z,47.37
2018-10-19T22:50:07.162Z,44.93
2018-10-19T22:52:36.274Z,44.03
2018-10-19T22:55:05.834Z,41.90
2018-10-19T22:57:34.851Z,48.90
2018-10-19T23:00:03.972Z,42.17
2018-10-19T23:02:32.707Z,46.40
2018-10-19T23:05:01.523Z,45.50
2018-10-19T23:07:30.441Z,45.53
2018-10-19T23:09:59.350Z,44.80
2018-10-19T23:12:28.058Z,46.90
2018-10-19T23:14:56.854Z,40.20
2018-10-19T23:17:25.649Z,42.03
2018-10-19T23:19:54.370Z,44.87
2018-10-19T23:22:23.098Z,50.47
2018-10-19T23:24:51.938Z,39.00
2018-10-19T23:27:20.725Z,45.07
2018-10-19T23:29:49.517Z,48.80
2018-10-19T23:32:18.288Z,45.47
2018-10-19T23:34:47.126Z,45.47
2018-10-19T23:37:15.954Z,45.67
2018-10-19T23:39:44.685Z,43.50
2018-10-19T23:42:13.680Z,41.83
2018-10-19T23:44:42.444Z,40.13
2018-10-19T23:47:11.759Z,41.63
2018-10-19T23:49:40.452Z,42.87
2018-10-19T23:52:09.406Z,44.20
2018-10-19T23:54:38.061Z,42.90
2018-10-19T23:57:06.878Z,44.87
2018-10-19T23:59:35.667Z,45.00
